sensor_id;sensor_type;location;lat;lon;timestamp;pressure;altitude;pressure_sealevel;temperature;humidity
67015;BME280;1033;52.560;13.374;2023-02-21T00:01:40;100660.81;;;8.71;100.00
67015;BME280;1033;52.560;13.374;2023-02-21T00:04:30;100650.38;;;8.68;100.00
67015;BME280;1033;52.560;13.374;2023-02-21T00:07:19;100647.91;;;8.66;100.00
67015;BME280;1033;52.560;13.374;2023-02-21T00:10:11;100648.97;;;8.72;100.00
67015;BME280;1033;52.560;13.374;2023-02-21T00:13:00;100649.13;;;8.64;100.00
67015;BME280;1033;52.560;13.374;2023-02-21T00:15:47;100642.28;;;8.68;100.00
67015;BME280;1033;52.560;13.374;2023-02-21T00:18:39;100642.03;;;8.63;100.00
67015;BME280;1033;52.560;13.374;2023-02-21T00:21:29;100636.91;;;8.68;100.00
67015;BME280;1033;52.560;13.374;2023-02-21T00:24:18;100641.44;;;8.67;100.00
67015;BME280;1033;52.560;13.374;2023-02-21T00:27:05;100645.00;;;8.68;100.00
67015;BME280;1033;52.560;13.374;2023-02-21T00:29:54;100638.56;;;8.69;100.00
67015;BME280;1033;52.560;13.374;2023-02-21T00:32:42;100644.38;;;8.66;100.00
67015;BME280;1033;52.560;13.374;2023-02-21T00:35:33;100638.31;;;8.64;100.00
67015;BME280;1033;52.560;13.374;2023-02-21T00:38:25;100639.34;;;8.63;100.00
67015;BME280;1033;52.560;13.374;2023-02-21T00:41:13;100624.25;;;8.68;100.00
67015;BME280;1033;52.560;13.374;2023-02-21T00:44:01;100627.13;;;8.67;100.00
67015;BME280;1033;52.560;13.374;2023-02-21T00:46:49;100636.91;;;8.68;100.00
67015;BME280;1033;52.560;13.374;2023-02-21T00:49:36;100629.63;;;8.68;100.00
67015;BME280;1033;52.560;13.374;2023-02-21T00:52:24;100632.00;;;8.78;100.00
67015;BME280;1033;52.560;13.374;2023-02-21T00:55:13;100636.31;;;8.72;100.00
67015;BME280;1033;52.560;13.374;2023-02-21T00:58:00;100624.91;;;8.77;100.00
67015;BME280;1033;52.560;13.374;2023-02-21T01:00:48;100634.69;;;8.78;100.00
67015;BME280;1033;52.560;13.374;2023-02-21T01:03:35;100618.91;;;8.75;100.00
67015;BME280;1033;52.560;13.374;2023-02-21T01:06:23;100630.72;;;8.74;100.00
67015;BME280;1033;52.560;13.374;2023-02-21T01:09:11;100623.47;;;8.75;100.00
67015;BME280;1033;52.560;13.374;2023-02-21T01:12:00;100615.19;;;8.76;100.00
67015;BME280;1033;52.560;13.374;2023-02-21T01:14:49;100613.09;;;8.78;100.00
67015;BME280;1033;52.560;13.374;2023-02-21T01:17:37;100603.81;;;8.81;100.00
67015;BME280;1033;52.560;13.374;2023-02-21T01:20:24;100604.00;;;8.79;100.00
67015;BME280;1033;52.560;13.374;2023-02-21T01:23:12;100604.59;;;8.81;100.00
67015;BME280;1033;52.560;13.374;2023-02-21T01:26:00;100600.63;;;8.77;100.00
67015;BME280;1033;52.560;13.374;2023-02-21T01:28:51;100593.81;;;8.81;100.00
67015;BME280;1033;52.560;13.374;2023-02-21T01:31:38;100597.75;;;8.79;100.00
67015;BME280;1033;52.560;13.374;2023-02-21T01:34:25;100599.22;;;8.81;100.00
67015;BME280;1033;52.560;13.374;2023-02-21T01:37:13;100572.22;;;8.81;100.00
67015;BME280;1033;52.560;13.374;2023-02-21T01:40:00;100587.22;;;8.84;100.00
67015;BME280;1033;52.560;13.374;2023-02-21T01:42:48;100578.91;;;8.85;100.00
67015;BME280;1033;52.560;13.374;2023-02-21T01:45:48;100577.47;;;8.89;100.00
67015;BME280;1033;52.560;13.374;2023-02-21T01:49:02;100575.81;;;8.88;100.00
67015;BME280;1033;52.560;13.374;2023-02-21T01:51:53;100577.06;;;8.86;100.00
67015;BME280;1033;52.560;13.374;2023-02-21T01:54:45;100582.03;;;8.89;100.00
67015;BME280;1033;52.560;13.374;2023-02-21T02:00:26;100574.56;;;8.91;100.00
67015;BME280;1033;52.560;13.374;2023-02-21T02:03:19;100581.63;;;8.92;100.00
67015;BME280;1033;52.560;13.374;2023-02-21T02:06:09;100582.09;;;8.95;100.00
67015;BME280;1033;52.560;13.374;2023-02-21T02:08:57;100582.34;;;9.00;100.00
67015;BME280;1033;52.560;13.374;2023-02-21T02:11:59;100571.91;;;8.97;100.00
67015;BME280;1033;52.560;13.374;2023-02-21T02:18:17;100573.78;;;8.97;100.00
67015;BME280;1033;52.560;13.374;2023-02-21T02:24:28;100580.25;;;9.02;100.00
67015;BME280;1033;52.560;13.374;2023-02-21T02:37:08;100566.38;;;9.12;100.00
67015;BME280;1033;52.560;13.374;2023-02-21T02:39:46;100562.47;;;9.14;100.00
67015;BME280;1033;52.560;13.374;2023-02-21T02:42:30;100554.56;;;9.13;100.00
67015;BME280;1033;52.560;13.374;2023-02-21T02:45:10;100545.84;;;9.18;100.00
67015;BME280;1033;52.560;13.374;2023-02-21T02:47:44;100552.94;;;9.19;100.00
67015;BME280;1033;52.560;13.374;2023-02-21T02:50:20;100553.53;;;9.21;100.00
67015;BME280;1033;52.560;13.374;2023-02-21T02:52:55;100563.31;;;9.22;100.00
67015;BME280;1033;52.560;13.374;2023-02-21T02:55:38;100560.19;;;9.25;100.00
67015;BME280;1033;52.560;13.374;2023-02-21T02:58:10;100556.06;;;9.22;100.00
67015;BME280;1033;52.560;13.374;2023-02-21T03:00:45;100551.50;;;9.23;100.00
67015;BME280;1033;52.560;13.374;2023-02-21T03:03:43;100554.78;;;9.25;100.00
67015;BME280;1033;52.560;13.374;2023-02-21T03:06:22;100550.22;;;9.25;100.00
67015;BME280;1033;52.560;13.374;2023-02-21T03:09:02;100564.19;;;9.29;100.00
67015;BME280;1033;52.560;13.374;2023-02-21T03:11:40;100550.69;;;9.29;100.00
67015;BME280;1033;52.560;13.374;2023-02-21T03:14:14;100551.53;;;9.36;100.00
67015;BME280;1033;52.560;13.374;2023-02-21T03:16:49;100543.03;;;9.39;100.00
67015;BME280;1033;52.560;13.374;2023-02-21T03:19:24;100546.53;;;9.39;100.00
67015;BME280;1033;52.560;13.374;2023-02-21T03:22:00;100557.78;;;9.43;100.00
67015;BME280;1033;52.560;13.374;2023-02-21T03:24:33;100544.91;;;9.45;100.00
67015;BME280;1033;52.560;13.374;2023-02-21T03:27:07;100550.72;;;9.42;100.00
67015;BME280;1033;52.560;13.374;2023-02-21T03:30:02;100556.31;;;9.40;100.00
67015;BME280;1033;52.560;13.374;2023-02-21T03:32:35;100554.44;;;9.41;100.00
67015;BME280;1033;52.560;13.374;2023-02-21T03:35:07;100557.78;;;9.43;100.00
67015;BME280;1033;52.560;13.374;2023-02-21T03:37:40;100555.09;;;9.43;100.00
67015;BME280;1033;52.560;13.374;2023-02-21T03:40:15;100559.25;;;9.45;100.00
67015;BME280;1033;52.560;13.374;2023-02-21T03:42:48;100565.28;;;9.47;100.00
67015;BME280;1033;52.560;13.374;2023-02-21T03:45:19;100559.66;;;9.42;100.00
67015;BME280;1033;52.560;13.374;2023-02-21T03:48:02;100565.91;;;9.43;100.00
67015;BME280;1033;52.560;13.374;2023-02-21T03:50:34;100560.69;;;9.41;100.00
67015;BME280;1033;52.560;13.374;2023-02-21T03:53:04;100561.34;;;9.43;100.00
67015;BME280;1033;52.560;13.374;2023-02-21T03:55:39;100566.94;;;9.42;100.00
67015;BME280;1033;52.560;13.374;2023-02-21T03:58:14;100567.97;;;9.41;100.00
67015;BME280;1033;52.560;13.374;2023-02-21T04:00:44;100565.69;;;9.44;100.00
67015;BME280;1033;52.560;13.374;2023-02-21T04:03:17;100577.13;;;9.46;100.00
67015;BME280;1033;52.560;13.374;2023-02-21T04:06:02;100579.41;;;9.49;100.00
67015;BME280;1033;52.560;13.374;2023-02-21T04:08:33;100567.78;;;9.55;100.00
67015;BME280;1033;52.560;13.374;2023-02-21T04:11:04;100575.28;;;9.60;100.00
67015;BME280;1033;52.560;13.374;2023-02-21T04:13:36;100582.78;;;9.65;100.00
67015;BME280;1033;52.560;13.374;2023-02-21T04:16:05;100567.00;;;9.62;100.00
67015;BME280;1033;52.560;13.374;2023-02-21T04:18:36;100579.47;;;9.69;100.00
67015;BME280;1033;52.560;13.374;2023-02-21T04:21:08;100580.94;;;9.72;100.00
67015;BME280;1033;52.560;13.374;2023-02-21T04:23:38;100589.06;;;9.72;100.00
67015;BME280;1033;52.560;13.374;2023-02-21T04:26:10;100592.16;;;9.75;100.00
67015;BME280;1033;52.560;13.374;2023-02-21T04:28:49;100599.84;;;9.78;100.00
67015;BME280;1033;52.560;13.374;2023-02-21T04:31:19;100596.53;;;9.76;100.00
67015;BME280;1033;52.560;13.374;2023-02-21T04:33:50;100596.97;;;9.80;100.00
67015;BME280;1033;52.560;13.374;2023-02-21T04:36:38;100603.63;;;9.77;100.00
67015;BME280;1033;52.560;13.374;2023-02-21T04:39:08;100596.16;;;9.86;100.00
67015;BME280;1033;52.560;13.374;2023-02-21T04:41:39;100590.94;;;9.84;100.00
67015;BME280;1033;52.560;13.374;2023-02-21T04:44:09;100598.22;;;9.84;100.00
67015;BME280;1033;52.560;13.374;2023-02-21T04:46:39;100596.13;;;9.79;100.00
67015;BME280;1033;52.560;13.374;2023-02-21T04:49:10;100598.22;;;9.77;100.00
67015;BME280;1033;52.560;13.374;2023-02-21T04:51:41;100589.88;;;9.79;100.00
67015;BME280;1033;52.560;13.374;2023-02-21T04:54:11;100589.03;;;9.78;100.00
67015;BME280;1033;52.560;13.374;2023-02-21T04:56:42;100599.03;;;9.71;100.00
67015;BME280;1033;52.560;13.374;2023-02-21T04:59:12;100606.88;;;9.59;100.00
67015;BME280;1033;52.560;13.374;2023-02-21T05:01:41;100607.03;;;9.45;100.00
67015;BME280;1033;52.560;13.374;2023-02-21T05:04:10;100613.88;;;9.41;100.00
67015;BME280;1033;52.560;13.374;2023-02-21T05:06:40;100602.44;;;9.39;100.00
67015;BME280;1033;52.560;13.374;2023-02-21T05:09:09;100612.63;;;9.37;100.00
67015;BME280;1033;52.560;13.374;2023-02-21T05:11:40;100602.22;;;9.34;100.00
67015;BME280;1033;52.560;13.374;2023-02-21T05:14:10;100595.97;;;9.33;100.00
67015;BME280;1033;52.560;13.374;2023-02-21T05:16:39;100603.47;;;9.38;100.00
67015;BME280;1033;52.560;13.374;2023-02-21T05:19:09;100599.09;;;9.37;100.00
67015;BME280;1033;52.560;13.374;2023-02-21T05:21:38;100603.00;;;9.28;100.00
67015;BME280;1033;52.560;13.374;2023-02-21T05:24:09;100601.34;;;9.27;100.00
67015;BME280;1033;52.560;13.374;2023-02-21T05:26:38;100598.41;;;9.22;100.00
67015;BME280;1033;52.560;13.374;2023-02-21T05:29:09;100597.78;;;9.20;100.00
67015;BME280;1033;52.560;13.374;2023-02-21T05:31:38;100599.44;;;9.21;100.00
67015;BME280;1033;52.560;13.374;2023-02-21T05:34:07;100601.31;;;9.20;100.00
67015;BME280;1033;52.560;13.374;2023-02-21T05:36:37;100614.38;;;9.16;100.00
67015;BME280;1033;52.560;13.374;2023-02-21T05:39:08;100613.34;;;9.18;100.00
67015;BME280;1033;52.560;13.374;2023-02-21T05:41:37;100607.75;;;9.19;100.00
67015;BME280;1033;52.560;13.374;2023-02-21T05:44:08;100609.16;;;9.15;100.00
67015;BME280;1033;52.560;13.374;2023-02-21T05:46:37;100611.69;;;9.16;100.00
67015;BME280;1033;52.560;13.374;2023-02-21T05:49:07;100619.16;;;9.14;100.00
67015;BME280;1033;52.560;13.374;2023-02-21T05:51:38;100620.81;;;9.15;100.00
67015;BME280;1033;52.560;13.374;2023-02-21T05:54:15;100621.22;;;9.12;100.00
67015;BME280;1033;52.560;13.374;2023-02-21T05:56:47;100631.16;;;9.12;100.00
67015;BME280;1033;52.560;13.374;2023-02-21T05:59:19;100628.28;;;9.13;100.00
67015;BME280;1033;52.560;13.374;2023-02-21T06:01:49;100630.34;;;9.11;100.00
67015;BME280;1033;52.560;13.374;2023-02-21T06:04:45;100638.66;;;9.16;100.00
67015;BME280;1033;52.560;13.374;2023-02-21T06:07:14;100637.84;;;9.16;100.00
67015;BME280;1033;52.560;13.374;2023-02-21T06:09:45;100651.16;;;9.18;100.00
67015;BME280;1033;52.560;13.374;2023-02-21T06:12:18;100662.94;;;9.10;100.00
67015;BME280;1033;52.560;13.374;2023-02-21T06:14:54;100665.25;;;9.13;100.00
67015;BME280;1033;52.560;13.374;2023-02-21T06:17:25;100666.06;;;9.13;100.00
67015;BME280;1033;52.560;13.374;2023-02-21T06:19:55;100666.88;;;9.07;100.00
67015;BME280;1033;52.560;13.374;2023-02-21T06:22:25;100669.63;;;9.14;100.00
67015;BME280;1033;52.560;13.374;2023-02-21T06:24:57;100678.31;;;9.09;100.00
67015;BME280;1033;52.560;13.374;2023-02-21T06:27:35;100674.13;;;9.07;100.00
67015;BME280;1033;52.560;13.374;2023-02-21T06:30:10;100679.72;;;9.05;100.00
67015;BME280;1033;52.560;13.374;2023-02-21T06:32:43;100681.78;;;9.03;100.00
67015;BME280;1033;52.560;13.374;2023-02-21T06:35:14;100681.78;;;9.03;100.00
67015;BME280;1033;52.560;13.374;2023-02-21T06:37:45;100683.91;;;9.08;100.00
67015;BME280;1033;52.560;13.374;2023-02-21T06:40:16;100684.50;;;9.03;100.00
67015;BME280;1033;52.560;13.374;2023-02-21T06:42:48;100685.09;;;9.05;100.00
67015;BME280;1033;52.560;13.374;2023-02-21T06:45:20;100696.31;;;9.02;100.00
67015;BME280;1033;52.560;13.374;2023-02-21T06:47:52;100696.56;;;9.07;100.00
67015;BME280;1033;52.560;13.374;2023-02-21T06:50:22;100695.72;;;9.07;100.00
67015;BME280;1033;52.560;13.374;2023-02-21T06:52:52;100701.59;;;9.17;100.00
67015;BME280;1033;52.560;13.374;2023-02-21T06:55:23;100700.16;;;9.21;100.00
67015;BME280;1033;52.560;13.374;2023-02-21T06:57:53;100713.06;;;9.19;100.00
67015;BME280;1033;52.560;13.374;2023-02-21T07:00:25;100712.47;;;9.24;100.00
67015;BME280;1033;52.560;13.374;2023-02-21T07:02:56;100727.38;;;9.20;100.00
67015;BME280;1033;52.560;13.374;2023-02-21T07:05:26;100729.63;;;9.16;100.00
67015;BME280;1033;52.560;13.374;2023-02-21T07:07:58;100728.34;;;9.12;100.00
67015;BME280;1033;52.560;13.374;2023-02-21T07:10:29;100735.84;;;9.16;100.00
67015;BME280;1033;52.560;13.374;2023-02-21T07:13:00;100741.50;;;9.22;100.00
67015;BME280;1033;52.560;13.374;2023-02-21T07:15:32;100742.34;;;9.22;100.00
67015;BME280;1033;52.560;13.374;2023-02-21T07:18:02;100740.91;;;9.26;100.00
67015;BME280;1033;52.560;13.374;2023-02-21T07:20:33;100751.38;;;9.36;100.00
67015;BME280;1033;52.560;13.374;2023-02-21T07:23:04;100757.19;;;9.39;100.00
67015;BME280;1033;52.560;13.374;2023-02-21T07:25:34;100757.00;;;9.41;100.00
67015;BME280;1033;52.560;13.374;2023-02-21T07:28:30;100766.94;;;9.34;100.00
67015;BME280;1033;52.560;13.374;2023-02-21T07:31:04;100773.38;;;9.33;100.00
67015;BME280;1033;52.560;13.374;2023-02-21T07:33:34;100770.44;;;9.28;100.00
67015;BME280;1033;52.560;13.374;2023-02-21T07:36:07;100775.44;;;9.31;100.00
67015;BME280;1033;52.560;13.374;2023-02-21T07:38:37;100772.47;;;9.26;100.00
67015;BME280;1033;52.560;13.374;2023-02-21T07:41:07;100773.22;;;9.41;100.00
67015;BME280;1033;52.560;13.374;2023-02-21T07:43:37;100777.59;;;9.42;100.00
67015;BME280;1033;52.560;13.374;2023-02-21T07:46:11;100775.97;;;9.47;100.00
67015;BME280;1033;52.560;13.374;2023-02-21T07:48:42;100773.53;;;9.59;100.00
67015;BME280;1033;52.560;13.374;2023-02-21T07:51:12;100771.06;;;9.64;100.00
67015;BME280;1033;52.560;13.374;2023-02-21T07:53:43;100779.00;;;9.66;100.00
67015;BME280;1033;52.560;13.374;2023-02-21T07:56:13;100779.03;;;9.72;100.00
67015;BME280;1033;52.560;13.374;2023-02-21T07:58:43;100781.31;;;9.75;100.00
67015;BME280;1033;52.560;13.374;2023-02-21T08:01:15;100785.69;;;9.76;100.00
67015;BME280;1033;52.560;13.374;2023-02-21T08:03:45;100782.09;;;9.63;100.00
67015;BME280;1033;52.560;13.374;2023-02-21T08:06:15;100789.38;;;9.62;100.00
67015;BME280;1033;52.560;13.374;2023-02-21T08:08:47;100793.09;;;9.61;100.00
67015;BME280;1033;52.560;13.374;2023-02-21T08:11:17;100803.66;;;9.56;100.00
67015;BME280;1033;52.560;13.374;2023-02-21T08:13:48;100812.31;;;9.79;100.00
67015;BME280;1033;52.560;13.374;2023-02-21T08:16:20;100825.28;;;9.90;100.00
67015;BME280;1033;52.560;13.374;2023-02-21T08:18:50;100812.19;;;9.87;100.00
67015;BME280;1033;52.560;13.374;2023-02-21T08:21:20;100816.44;;;10.10;100.00
67015;BME280;1033;52.560;13.374;2023-02-21T08:24:18;100816.09;;;10.19;100.00
67015;BME280;1033;52.560;13.374;2023-02-21T08:26:49;100819.69;;;9.98;100.00
67015;BME280;1033;52.560;13.374;2023-02-21T08:29:22;100821.75;;;9.90;100.00
67015;BME280;1033;52.560;13.374;2023-02-21T08:31:56;100831.75;;;9.96;100.00
67015;BME280;1033;52.560;13.374;2023-02-21T08:34:27;100830.03;;;9.88;98.47
67015;BME280;1033;52.560;13.374;2023-02-21T08:36:58;100821.09;;;9.88;96.76
67015;BME280;1033;52.560;13.374;2023-02-21T08:39:28;100832.84;;;10.01;96.58
67015;BME280;1033;52.560;13.374;2023-02-21T08:41:59;100831.63;;;10.11;97.16
67015;BME280;1033;52.560;13.374;2023-02-21T08:44:29;100830.94;;;9.95;95.80
67015;BME280;1033;52.560;13.374;2023-02-21T08:47:00;100843.00;;;9.99;95.00
67015;BME280;1033;52.560;13.374;2023-02-21T08:49:30;100837.03;;;10.11;94.73
67015;BME280;1033;52.560;13.374;2023-02-21T08:52:00;100841.28;;;10.26;94.48
67015;BME280;1033;52.560;13.374;2023-02-21T08:54:30;100837.19;;;10.37;92.56
67015;BME280;1033;52.560;13.374;2023-02-21T08:57:00;100853.25;;;10.11;90.72
67015;BME280;1033;52.560;13.374;2023-02-21T08:59:32;100852.38;;;10.03;91.65
67015;BME280;1033;52.560;13.374;2023-02-21T09:02:06;100848.19;;;9.94;91.86
67015;BME280;1033;52.560;13.374;2023-02-21T09:04:39;100851.13;;;9.99;92.82
67015;BME280;1033;52.560;13.374;2023-02-21T09:07:10;100845.28;;;10.02;92.54
67015;BME280;1033;52.560;13.374;2023-02-21T09:09:40;100852.44;;;10.10;92.10
67015;BME280;1033;52.560;13.374;2023-02-21T09:12:10;100844.91;;;10.06;92.21
67015;BME280;1033;52.560;13.374;2023-02-21T09:14:41;100841.00;;;10.15;91.54
67015;BME280;1033;52.560;13.374;2023-02-21T09:17:15;100848.59;;;10.26;89.48
67015;BME280;1033;52.560;13.374;2023-02-21T09:19:45;100857.09;;;10.23;88.65
67015;BME280;1033;52.560;13.374;2023-02-21T09:22:14;100854.38;;;10.23;88.68
67015;BME280;1033;52.560;13.374;2023-02-21T09:24:47;100850.03;;;10.28;87.90
67015;BME280;1033;52.560;13.374;2023-02-21T09:27:16;100860.72;;;10.43;87.40
67015;BME280;1033;52.560;13.374;2023-02-21T09:29:47;100859.69;;;10.44;84.99
67015;BME280;1033;52.560;13.374;2023-02-21T09:32:17;100867.81;;;10.44;83.14
67015;BME280;1033;52.560;13.374;2023-02-21T09:34:47;100876.34;;;10.48;81.21
67015;BME280;1033;52.560;13.374;2023-02-21T09:37:16;100873.00;;;10.39;80.38
67015;BME280;1033;52.560;13.374;2023-02-21T09:39:46;100876.72;;;10.38;77.75
67015;BME280;1033;52.560;13.374;2023-02-21T09:42:16;100876.31;;;10.41;77.25
67015;BME280;1033;52.560;13.374;2023-02-21T09:44:47;100881.34;;;10.51;76.98
67015;BME280;1033;52.560;13.374;2023-02-21T09:47:28;100883.47;;;10.62;75.92
67015;BME280;1033;52.560;13.374;2023-02-21T09:50:02;100885.53;;;10.53;76.70
67015;BME280;1033;52.560;13.374;2023-02-21T09:52:35;100871.81;;;10.55;76.36
67015;BME280;1033;52.560;13.374;2023-02-21T09:55:19;100895.00;;;10.83;76.51
67015;BME280;1033;52.560;13.374;2023-02-21T09:57:50;100879.75;;;10.63;77.04
67015;BME280;1033;52.560;13.374;2023-02-21T10:00:22;100897.19;;;10.54;77.56
67015;BME280;1033;52.560;13.374;2023-02-21T10:02:58;100891.41;;;10.63;77.44
67015;BME280;1033;52.560;13.374;2023-02-21T10:05:38;100880.00;;;10.74;78.13
67015;BME280;1033;52.560;13.374;2023-02-21T10:08:21;100878.72;;;10.70;76.75
67015;BME280;1033;52.560;13.374;2023-02-21T10:11:01;100889.38;;;10.78;74.59
67015;BME280;1033;52.560;13.374;2023-02-21T10:13:40;100890.97;;;10.66;74.26
67015;BME280;1033;52.560;13.374;2023-02-21T10:16:14;100901.34;;;10.56;74.67
67015;BME280;1033;52.560;13.374;2023-02-21T10:18:54;100888.09;;;10.68;73.82
67015;BME280;1033;52.560;13.374;2023-02-21T10:21:32;100901.81;;;10.66;74.35
67015;BME280;1033;52.560;13.374;2023-02-21T10:24:10;100906.47;;;10.79;73.62
67015;BME280;1033;52.560;13.374;2023-02-21T10:26:43;100899.78;;;10.81;74.36
67015;BME280;1033;52.560;13.374;2023-02-21T10:29:21;100910.19;;;10.84;73.62
67015;BME280;1033;52.560;13.374;2023-02-21T10:31:55;100915.50;;;10.52;74.05
67015;BME280;1033;52.560;13.374;2023-02-21T10:34:29;100925.00;;;10.41;74.81
67015;BME280;1033;52.560;13.374;2023-02-21T10:37:03;100924.69;;;10.57;75.12
67015;BME280;1033;52.560;13.374;2023-02-21T10:39:41;100906.53;;;10.51;75.73
67015;BME280;1033;52.560;13.374;2023-02-21T10:42:19;100918.91;;;10.73;75.41
67015;BME280;1033;52.560;13.374;2023-02-21T10:44:55;100928.94;;;10.79;75.32
67015;BME280;1033;52.560;13.374;2023-02-21T10:47:31;100915.28;;;10.53;75.71
67015;BME280;1033;52.560;13.374;2023-02-21T10:50:07;100923.09;;;10.76;76.07
67015;BME280;1033;52.560;13.374;2023-02-21T10:52:47;100913.97;;;10.90;75.24
67015;BME280;1033;52.560;13.374;2023-02-21T10:55:19;100916.25;;;10.86;76.05
67015;BME280;1033;52.560;13.374;2023-02-21T10:58:07;100923.19;;;11.15;75.25
67015;BME280;1033;52.560;13.374;2023-02-21T11:00:39;100928.84;;;11.20;73.93
67015;BME280;1033;52.560;13.374;2023-02-21T11:03:21;100928.97;;;10.93;75.28
67015;BME280;1033;52.560;13.374;2023-02-21T11:05:56;100916.13;;;11.21;75.22
67015;BME280;1033;52.560;13.374;2023-02-21T11:08:35;100907.78;;;11.03;73.20
67015;BME280;1033;52.560;13.374;2023-02-21T11:11:06;100921.31;;;11.03;74.81
67015;BME280;1033;52.560;13.374;2023-02-21T11:13:38;100926.56;;;11.17;73.92
67015;BME280;1033;52.560;13.374;2023-02-21T11:16:10;100925.09;;;11.21;72.98
67015;BME280;1033;52.560;13.374;2023-02-21T11:18:46;100923.00;;;11.17;72.23
67015;BME280;1033;52.560;13.374;2023-02-21T11:21:34;100923.78;;;10.98;71.53
67015;BME280;1033;52.560;13.374;2023-02-21T11:24:05;100918.53;;;10.89;71.76
67015;BME280;1033;52.560;13.374;2023-02-21T11:26:43;100916.91;;;10.88;71.19
67015;BME280;1033;52.560;13.374;2023-02-21T11:29:15;100921.91;;;10.92;71.70
67015;BME280;1033;52.560;13.374;2023-02-21T11:31:46;100920.63;;;10.87;71.83
67015;BME280;1033;52.560;13.374;2023-02-21T11:34:17;100919.25;;;11.18;70.99
67015;BME280;1033;52.560;13.374;2023-02-21T11:36:50;100914.47;;;11.20;69.47
67015;BME280;1033;52.560;13.374;2023-02-21T11:39:24;100905.69;;;11.05;70.34
67015;BME280;1033;52.560;13.374;2023-02-21T11:41:57;100917.16;;;11.20;69.12
67015;BME280;1033;52.560;13.374;2023-02-21T11:44:32;100913.84;;;11.18;67.48
67015;BME280;1033;52.560;13.374;2023-02-21T11:47:10;100923.19;;;11.15;68.27
67015;BME280;1033;52.560;13.374;2023-02-21T11:49:48;100920.50;;;11.15;67.59
67015;BME280;1033;52.560;13.374;2023-02-21T11:52:28;100916.44;;;10.78;67.70
67015;BME280;1033;52.560;13.374;2023-02-21T11:55:01;100922.56;;;11.07;66.62
67015;BME280;1033;52.560;13.374;2023-02-21T11:57:36;100919.47;;;11.23;65.83
67015;BME280;1033;52.560;13.374;2023-02-21T12:00:19;100927.63;;;11.36;65.62
67015;BME280;1033;52.560;13.374;2023-02-21T12:03:12;100931.56;;;11.33;65.03
67015;BME280;1033;52.560;13.374;2023-02-21T12:05:54;100941.38;;;11.34;63.88
67015;BME280;1033;52.560;13.374;2023-02-21T12:08:44;100924.25;;;11.21;64.72
67015;BME280;1033;52.560;13.374;2023-02-21T12:11:28;100928.19;;;10.99;65.80
67015;BME280;1033;52.560;13.374;2023-02-21T12:14:21;100921.91;;;10.92;65.58
67015;BME280;1033;52.560;13.374;2023-02-21T12:17:01;100924.81;;;10.97;66.02
67015;BME280;1033;52.560;13.374;2023-02-21T12:19:56;100929.78;;;10.86;65.53
67015;BME280;1033;52.560;13.374;2023-02-21T12:22:42;100925.47;;;10.99;66.18
67015;BME280;1033;52.560;13.374;2023-02-21T12:25:22;100929.47;;;11.16;65.99
67015;BME280;1033;52.560;13.374;2023-02-21T12:28:03;100939.69;;;11.33;65.57
67015;BME280;1033;52.560;13.374;2023-02-21T12:33:43;100924.81;;;10.97;64.45
67015;BME280;1033;52.560;13.374;2023-02-21T12:36:31;100929.63;;;11.01;64.30
67015;BME280;1033;52.560;13.374;2023-02-21T12:39:09;100930.09;;;11.18;64.41
67015;BME280;1033;52.560;13.374;2023-02-21T12:44:53;100927.38;;;11.11;64.38
67015;BME280;1033;52.560;13.374;2023-02-21T12:47:29;100929.91;;;11.26;64.08
67015;BME280;1033;52.560;13.374;2023-02-21T12:50:04;100936.78;;;11.48;62.21
67015;BME280;1033;52.560;13.374;2023-02-21T12:52:38;100934.28;;;11.33;62.22
67015;BME280;1033;52.560;13.374;2023-02-21T12:55:15;100938.03;;;11.39;62.51
67015;BME280;1033;52.560;13.374;2023-02-21T12:57:55;100936.97;;;11.20;63.19
67015;BME280;1033;52.560;13.374;2023-02-21T13:00:29;100926.97;;;11.21;63.57
67015;BME280;1033;52.560;13.374;2023-02-21T13:10:04;100927.66;;;10.75;62.44
67015;BME280;1033;52.560;13.374;2023-02-21T13:12:39;100927.84;;;10.67;62.69
67015;BME280;1033;52.560;13.374;2023-02-21T13:15:20;100923.13;;;10.82;61.85
67015;BME280;1033;52.560;13.374;2023-02-21T13:17:57;100920.44;;;10.89;61.66
67015;BME280;1033;52.560;13.374;2023-02-21T13:20:32;100917.28;;;10.79;61.35
67015;BME280;1033;52.560;13.374;2023-02-21T13:23:05;100918.31;;;10.84;62.35
67015;BME280;1033;52.560;13.374;2023-02-21T13:25:47;100926.44;;;10.78;61.91
67015;BME280;1033;52.560;13.374;2023-02-21T13:28:23;100930.13;;;10.70;62.50
67015;BME280;1033;52.560;13.374;2023-02-21T13:30:58;100918.84;;;10.60;63.02
67015;BME280;1033;52.560;13.374;2023-02-21T13:33:37;100921.03;;;10.84;63.60
67015;BME280;1033;52.560;13.374;2023-02-21T13:36:24;100916.06;;;10.95;63.16
67015;BME280;1033;52.560;13.374;2023-02-21T13:39:09;100911.72;;;10.94;62.70
67015;BME280;1033;52.560;13.374;2023-02-21T13:41:42;100913.56;;;10.93;63.40
67015;BME280;1033;52.560;13.374;2023-02-21T13:44:17;100919.41;;;10.97;63.61
67015;BME280;1033;52.560;13.374;2023-02-21T13:47:08;100910.63;;;10.95;63.03
67015;BME280;1033;52.560;13.374;2023-02-21T13:49:53;100923.97;;;10.89;63.65
67015;BME280;1033;52.560;13.374;2023-02-21T13:55:29;100922.94;;;10.90;64.06
67015;BME280;1033;52.560;13.374;2023-02-21T13:58:23;100916.94;;;11.02;63.33
67015;BME280;1033;52.560;13.374;2023-02-21T14:03:59;100923.22;;;10.61;63.99
67015;BME280;1033;52.560;13.374;2023-02-21T14:06:55;100925.94;;;10.61;64.28
67015;BME280;1033;52.560;13.374;2023-02-21T14:09:27;100925.31;;;10.59;64.57
67015;BME280;1033;52.560;13.374;2023-02-21T14:12:05;100930.13;;;10.64;64.56
67015;BME280;1033;52.560;13.374;2023-02-21T14:14:37;100921.75;;;10.52;64.75
67015;BME280;1033;52.560;13.374;2023-02-21T14:17:11;100919.59;;;10.41;65.51
67015;BME280;1033;52.560;13.374;2023-02-21T14:19:47;100916.28;;;10.39;65.79